Time;durP1;ratioP1;P1;durP2;ratioP2;P2;SDS_P1;SDS_P2;PMS_P1;PMS_P2;Temp;Humidity;BMP_temperature;BMP_pressure;BME280_temperature;BME280_humidity;BME280_pressure;Samples;Min_cycle;Max_cycle;Signal;HPM_P1;HPM_P2
2020/12/09 00:02:19;;;;;;;70.03;34.90;;;-0.70;99.90;;;;;;5037412;28;37612;-78
2020/12/09 00:04:45;;;;;;;66.30;33.67;;;-0.70;99.90;;;;;;5022743;28;37888;-78
2020/12/09 00:07:11;;;;;;;69.13;34.80;;;-0.70;99.90;;;;;;5019820;28;39363;-78
2020/12/09 00:09:37;;;;;;;58.20;30.33;;;-0.70;99.90;;;;;;5023817;28;38976;-78
2020/12/09 00:12:04;;;;;;;65.97;28.63;;;-0.70;99.90;;;;;;5025627;28;37624;-77
2020/12/09 00:14:30;;;;;;;71.97;34.90;;;-0.80;99.90;;;;;;5026757;28;37775;-78
2020/12/09 00:16:56;;;;;;;79.13;36.03;;;-0.90;99.90;;;;;;5036110;28;36234;-78
2020/12/09 00:19:22;;;;;;;83.67;37.70;;;-0.80;99.90;;;;;;5022114;28;38132;-78
2020/12/09 00:21:48;;;;;;;82.17;36.97;;;-0.80;99.90;;;;;;5023799;28;37606;-78
2020/12/09 00:24:14;;;;;;;72.33;37.27;;;-0.80;99.90;;;;;;5023792;28;38399;-78
2020/12/09 00:26:40;;;;;;;85.20;36.73;;;-0.70;99.90;;;;;;5019903;28;36161;-78
2020/12/09 00:29:07;;;;;;;93.80;40.83;;;-0.70;99.90;;;;;;5020894;28;37817;-77
2020/12/09 00:31:33;;;;;;;89.47;38.27;;;-0.70;99.90;;;;;;5022866;28;37822;-78
2020/12/09 00:34:01;;;;;;;82.60;38.27;;;-0.80;99.90;;;;;;5024870;28;37597;-78
2020/12/09 00:36:28;;;;;;;71.47;33.73;;;-0.80;99.90;;;;;;5017066;28;46968;-78
2020/12/09 00:38:55;;;;;;;85.53;38.13;;;-0.80;99.90;;;;;;5023216;28;39290;-78
2020/12/09 00:41:26;;;;;;;81.10;36.30;;;-0.90;99.90;;;;;;5007966;28;38559;-78
2020/12/09 00:43:52;;;;;;;89.90;39.73;;;-0.90;99.90;;;;;;4999489;28;37723;-78
2020/12/09 00:46:21;;;;;;;85.70;39.63;;;-0.90;99.90;;;;;;4999017;28;38038;-78
2020/12/09 00:48:47;;;;;;;104.03;44.13;;;-0.90;99.90;;;;;;5017035;28;38470;-78
2020/12/09 00:51:14;;;;;;;84.83;41.50;;;-0.80;99.90;;;;;;5019575;28;38787;-78
2020/12/09 00:53:40;;;;;;;115.90;47.47;;;-0.50;99.90;;;;;;5021648;28;37371;-78
2020/12/09 00:56:08;;;;;;;180.97;50.77;;;0.20;99.90;;;;;;5023173;28;37637;-78
2020/12/09 00:58:34;;;;;;;127.77;45.23;;;0.70;99.90;;;;;;5019565;28;38634;-78
2020/12/09 01:01:00;;;;;;;372.27;57.77;;;0.90;99.90;;;;;;5025616;28;37284;-78
2020/12/09 01:03:26;;;;;;;271.60;51.73;;;0.90;99.90;;;;;;5041527;28;38391;-78
2020/12/09 01:05:52;;;;;;;147.23;46.83;;;0.80;99.90;;;;;;5022463;28;37004;-78
2020/12/09 01:08:18;;;;;;;205.20;49.93;;;0.60;99.90;;;;;;5018360;28;39402;-78
2020/12/09 01:10:44;;;;;;;261.63;52.63;;;0.50;99.90;;;;;;5039593;28;38449;-78
2020/12/09 01:13:11;;;;;;;168.03;47.97;;;0.40;99.90;;;;;;5018802;28;37767;-78
2020/12/09 01:15:37;;;;;;;120.47;42.13;;;0.30;99.90;;;;;;5024559;28;36595;-78
2020/12/09 01:18:03;;;;;;;103.57;45.33;;;0.30;99.90;;;;;;5036573;28;37831;-77
2020/12/09 01:20:29;;;;;;;121.07;46.83;;;0.30;99.90;;;;;;5023710;28;37473;-78
2020/12/09 01:22:55;;;;;;;91.03;42.70;;;0.30;99.90;;;;;;5021810;28;37876;-78
2020/12/09 01:25:21;;;;;;;68.03;38.50;;;0.40;99.90;;;;;;5023508;28;36561;-78
2020/12/09 01:27:47;;;;;;;93.53;42.03;;;0.40;99.90;;;;;;5014827;28;38041;-78
2020/12/09 01:30:13;;;;;;;63.53;36.43;;;0.40;99.90;;;;;;5025637;28;38480;-78
2020/12/09 01:32:40;;;;;;;96.03;39.07;;;0.50;99.90;;;;;;5024932;28;37999;-78
2020/12/09 01:35:06;;;;;;;95.17;41.87;;;0.50;99.90;;;;;;5037680;28;38292;-78
2020/12/09 01:37:32;;;;;;;163.80;45.63;;;0.50;99.90;;;;;;5023642;28;37849;-78
2020/12/09 01:39:58;;;;;;;111.97;37.63;;;0.60;99.90;;;;;;5034314;28;36904;-78
2020/12/09 01:42:24;;;;;;;181.93;48.30;;;0.60;99.90;;;;;;5018125;28;37217;-78
2020/12/09 01:44:50;;;;;;;62.90;32.73;;;0.50;99.90;;;;;;5031742;28;36147;-78
2020/12/09 01:47:17;;;;;;;99.33;41.83;;;0.50;99.90;;;;;;5019546;28;37680;-78
2020/12/09 01:49:43;;;;;;;67.80;39.47;;;0.60;99.90;;;;;;5015513;28;39919;-78
2020/12/09 01:52:09;;;;;;;65.77;34.73;;;0.60;99.90;;;;;;5033119;28;37049;-78
2020/12/09 01:54:35;;;;;;;142.53;37.47;;;0.70;99.90;;;;;;5019122;28;37208;-78
2020/12/09 01:57:12;;;;;;;188.33;42.30;;;0.60;99.90;;;;;;5018439;28;38754;-77
2020/12/09 01:59:39;;;;;;;96.00;36.83;;;0.40;99.90;;;;;;5030144;28;38430;-77
2020/12/09 02:02:07;;;;;;;67.70;33.57;;;0.50;99.90;;;;;;5022164;28;39544;-77
2020/12/09 02:04:33;;;;;;;88.27;35.57;;;0.50;99.90;;;;;;5025662;28;36108;-78
2020/12/09 02:07:00;;;;;;;105.23;36.40;;;0.60;99.90;;;;;;5028010;28;38770;-78
2020/12/09 02:09:27;;;;;;;96.97;35.40;;;0.60;99.90;;;;;;5029117;28;38252;-78
2020/12/09 02:11:54;;;;;;;131.70;36.27;;;0.60;99.90;;;;;;5024831;28;38714;-78
2020/12/09 02:14:21;;;;;;;181.57;44.67;;;0.50;99.90;;;;;;5021867;28;36860;-78
2020/12/09 02:16:48;;;;;;;63.67;32.03;;;0.50;99.90;;;;;;5021818;28;37669;-78
2020/12/09 02:19:14;;;;;;;178.03;38.13;;;0.50;99.90;;;;;;5025755;28;38671;-78
2020/12/09 02:21:41;;;;;;;110.43;35.13;;;0.50;99.90;;;;;;5028254;28;38881;-78
2020/12/09 02:24:07;;;;;;;125.33;39.90;;;0.50;99.90;;;;;;5057877;28;35955;-78
2020/12/09 02:26:33;;;;;;;77.03;35.30;;;0.50;99.90;;;;;;5025077;28;37673;-78
2020/12/09 02:28:59;;;;;;;67.57;31.67;;;0.60;99.90;;;;;;5020142;28;38629;-78
2020/12/09 02:31:25;;;;;;;127.73;41.87;;;0.70;99.90;;;;;;5019634;28;38950;-78
2020/12/09 02:33:51;;;;;;;85.13;31.20;;;0.60;99.90;;;;;;5029450;28;37392;-78
2020/12/09 02:36:17;;;;;;;130.00;40.67;;;0.70;99.90;;;;;;5021368;28;37482;-78
2020/12/09 02:38:43;;;;;;;63.77;29.63;;;0.70;99.90;;;;;;5050817;28;38150;-78
2020/12/09 02:41:09;;;;;;;64.90;29.57;;;0.70;99.90;;;;;;5035602;28;37233;-78
2020/12/09 02:43:36;;;;;;;99.03;33.17;;;0.80;99.90;;;;;;5019814;28;37983;-78
2020/12/09 02:46:02;;;;;;;96.53;33.37;;;0.90;99.90;;;;;;5039313;28;37768;-77
2020/12/09 02:48:28;;;;;;;67.37;27.97;;;0.90;99.90;;;;;;5020095;28;39502;-78
2020/12/09 02:50:56;;;;;;;219.33;42.10;;;0.90;99.90;;;;;;5020251;28;38410;-78
2020/12/09 02:53:22;;;;;;;131.80;36.93;;;1.00;99.90;;;;;;5011530;28;36480;-78
2020/12/09 02:55:49;;;;;;;216.77;46.47;;;1.00;99.90;;;;;;5038068;28;38154;-78
2020/12/09 02:58:15;;;;;;;79.20;33.57;;;1.00;99.90;;;;;;5017891;28;39237;-79
2020/12/09 03:00:41;;;;;;;161.23;42.87;;;1.00;99.90;;;;;;5020494;28;37936;-78
2020/12/09 03:03:07;;;;;;;171.93;39.93;;;1.10;99.90;;;;;;5041574;28;36448;-79
2020/12/09 03:05:33;;;;;;;193.87;41.77;;;1.10;99.90;;;;;;5027384;28;38773;-78
2020/12/09 03:07:59;;;;;;;217.80;42.93;;;1.10;99.90;;;;;;5052075;28;37615;-79
2020/12/09 03:10:25;;;;;;;174.10;43.87;;;1.10;99.90;;;;;;5024033;28;39251;-78
2020/12/09 03:12:51;;;;;;;228.53;46.43;;;1.10;99.90;;;;;;5020821;28;36538;-78
2020/12/09 03:15:17;;;;;;;132.27;40.50;;;1.20;99.90;;;;;;5026770;28;38739;-79
2020/12/09 03:17:43;;;;;;;262.67;47.00;;;1.20;99.90;;;;;;5019093;28;38516;-78
2020/12/09 03:20:09;;;;;;;279.17;50.00;;;1.20;99.90;;;;;;5025631;28;38967;-79
2020/12/09 03:22:35;;;;;;;170.03;45.03;;;1.20;99.90;;;;;;5027556;28;38437;-79
2020/12/09 03:25:02;;;;;;;166.97;43.67;;;1.20;99.90;;;;;;5021479;28;38737;-77
2020/12/09 03:27:28;;;;;;;241.03;52.97;;;1.20;99.90;;;;;;5024107;28;37003;-78
2020/12/09 03:29:54;;;;;;;174.07;43.90;;;1.30;99.90;;;;;;5029601;28;39208;-78
2020/12/09 03:32:20;;;;;;;119.87;43.03;;;1.30;99.90;;;;;;5024531;28;37038;-78
2020/12/09 03:34:46;;;;;;;120.17;43.23;;;1.30;99.90;;;;;;5025246;28;38775;-78
2020/12/09 03:37:12;;;;;;;240.17;52.73;;;1.40;99.90;;;;;;5026836;28;37641;-78
2020/12/09 03:39:38;;;;;;;226.70;53.20;;;1.40;99.90;;;;;;5042143;28;36997;-78
2020/12/09 03:42:04;;;;;;;298.23;58.90;;;1.40;99.90;;;;;;5047694;28;36929;-77
2020/12/09 03:44:30;;;;;;;166.63;51.43;;;1.40;99.90;;;;;;5024151;28;38979;-77
2020/12/09 03:46:56;;;;;;;127.93;49.33;;;1.40;99.90;;;;;;5036364;28;37975;-78
2020/12/09 03:49:23;;;;;;;133.37;50.07;;;1.40;99.90;;;;;;5037232;28;37398;-77
2020/12/09 03:51:49;;;;;;;160.27;53.60;;;1.50;99.90;;;;;;5039959;28;36808;-78
2020/12/09 03:54:15;;;;;;;294.07;59.00;;;1.50;99.90;;;;;;5039315;28;37832;-77
2020/12/09 03:56:42;;;;;;;257.90;54.30;;;1.50;99.90;;;;;;5042868;28;38612;-77
2020/12/09 03:59:08;;;;;;;156.70;51.10;;;1.50;99.90;;;;;;5022262;28;37982;-77
2020/12/09 04:01:34;;;;;;;207.37;55.30;;;1.50;99.90;;;;;;5021449;28;37263;-77
2020/12/09 04:04:00;;;;;;;171.60;50.43;;;1.40;99.90;;;;;;5053403;28;38256;-77
2020/12/09 04:06:26;;;;;;;211.13;53.57;;;1.40;99.90;;;;;;5017957;28;38844;-77
2020/12/09 04:08:52;;;;;;;144.67;49.07;;;1.40;99.90;;;;;;5006332;28;36219;-77
2020/12/09 04:11:18;;;;;;;138.50;48.53;;;1.40;99.90;;;;;;5034133;28;36068;-78
2020/12/09 04:13:44;;;;;;;99.80;45.80;;;1.40;99.90;;;;;;5033452;28;39202;-77
2020/12/09 04:16:10;;;;;;;170.97;46.67;;;1.50;99.90;;;;;;5029654;28;37166;-77
2020/12/09 04:18:36;;;;;;;202.43;52.07;;;1.50;99.90;;;;;;5015603;28;37798;-77
2020/12/09 04:21:04;;;;;;;192.57;49.87;;;1.50;99.90;;;;;;5021792;28;38146;-77
2020/12/09 04:23:30;;;;;;;207.03;53.73;;;1.50;99.90;;;;;;5031733;28;39659;-77
2020/12/09 04:25:56;;;;;;;153.47;46.40;;;1.50;99.90;;;;;;5024190;28;38357;-77
2020/12/09 04:28:22;;;;;;;193.40;51.77;;;1.50;99.90;;;;;;5037431;28;35938;-77
2020/12/09 04:30:48;;;;;;;176.80;47.57;;;1.50;99.90;;;;;;5017497;28;36932;-77
2020/12/09 04:33:14;;;;;;;154.83;44.63;;;1.40;99.90;;;;;;5015231;28;38803;-77
2020/12/09 04:35:41;;;;;;;294.83;49.30;;;1.40;99.90;;;;;;5019636;28;37468;-77
2020/12/09 04:38:08;;;;;;;180.10;42.40;;;1.20;99.90;;;;;;5019879;28;38703;-77
2020/12/09 04:40:34;;;;;;;111.83;38.60;;;1.10;99.90;;;;;;5017155;28;37273;-77
2020/12/09 04:43:02;;;;;;;96.03;38.83;;;1.10;99.90;;;;;;5022894;28;37956;-78
2020/12/09 04:45:31;;;;;;;74.67;36.43;;;1.20;99.90;;;;;;5018597;28;47198;-77
2020/12/09 04:48:11;;;;;;;133.63;38.57;;;1.20;99.90;;;;;;5021238;28;39153;-77
2020/12/09 04:51:06;;;;;;;137.73;39.80;;;1.20;99.90;;;;;;5059394;28;47173;-77
2020/12/09 04:53:33;;;;;;;175.80;42.53;;;1.20;99.90;;;;;;5012319;28;47352;-77
2020/12/09 04:56:00;;;;;;;192.83;44.30;;;1.20;99.90;;;;;;5023444;28;38471;-77
2020/12/09 04:58:40;;;;;;;241.57;49.20;;;1.20;99.90;;;;;;5030521;28;38049;-77
2020/12/09 05:01:12;;;;;;;191.07;45.53;;;1.20;99.90;;;;;;5019037;28;37596;-77
2020/12/09 05:03:43;;;;;;;172.40;46.83;;;1.20;99.90;;;;;;5016579;28;39713;-77
2020/12/09 05:06:12;;;;;;;215.40;51.93;;;1.20;99.90;;;;;;5031526;28;38444;-77
2020/12/09 05:08:41;;;;;;;342.43;51.37;;;1.20;99.90;;;;;;5022557;28;37975;-77
2020/12/09 05:11:11;;;;;;;145.93;43.97;;;1.20;99.90;;;;;;5037176;28;36231;-77
2020/12/09 05:13:41;;;;;;;264.47;52.17;;;1.20;99.90;;;;;;5032641;28;37546;-77
2020/12/09 05:16:11;;;;;;;122.73;43.07;;;1.20;99.90;;;;;;5014458;28;39171;-77
2020/12/09 05:18:41;;;;;;;222.03;50.67;;;1.20;99.90;;;;;;5020548;28;38774;-77
2020/12/09 05:21:18;;;;;;;164.50;49.53;;;1.30;99.90;;;;;;5025026;28;36457;-77
2020/12/09 05:23:58;;;;;;;182.03;53.83;;;1.30;99.90;;;;;;5019582;28;38799;-77
2020/12/09 05:26:29;;;;;;;258.83;57.40;;;1.30;99.90;;;;;;5016456;28;38462;-77
2020/12/09 05:29:11;;;;;;;219.43;57.60;;;1.30;99.90;;;;;;5018185;28;38827;-77
2020/12/09 05:31:39;;;;;;;139.50;48.90;;;1.30;99.90;;;;;;5021392;28;46932;-77
2020/12/09 05:34:32;;;;;;;210.73;56.17;;;1.20;99.90;;;;;;5032762;28;37535;-76
2020/12/09 05:37:08;;;;;;;;;;;1.30;99.90;;;;;;5019694;28;36785;-77
2020/12/09 05:39:35;;;;;;;221.50;60.13;;;1.20;99.90;;;;;;5007250;28;47474;-77
2020/12/09 05:42:15;;;;;;;213.33;59.13;;;1.30;99.90;;;;;;5017764;28;37571;-77
2020/12/09 05:44:42;;;;;;;229.20;61.53;;;1.20;99.90;;;;;;5019297;28;48330;-77
2020/12/09 05:47:09;;;;;;;288.40;60.90;;;1.30;99.90;;;;;;5026931;28;40186;-77
2020/12/09 05:49:39;;;;;;;194.73;56.80;;;1.20;99.90;;;;;;5021719;28;40125;-77
2020/12/09 05:52:08;;;;;;;174.53;55.23;;;1.30;99.90;;;;;;5051532;28;38931;-77
2020/12/09 05:54:36;;;;;;;176.10;57.17;;;1.30;99.90;;;;;;5037691;28;38550;-77
2020/12/09 05:57:07;;;;;;;163.97;57.20;;;1.40;99.90;;;;;;5024858;28;38448;-77
2020/12/09 05:59:42;;;;;;;210.53;61.27;;;1.40;99.90;;;;;;5044728;28;39976;-77
2020/12/09 06:02:12;;;;;;;327.07;75.13;;;1.50;99.90;;;;;;5037046;28;37792;-77
2020/12/09 06:05:06;;;;;;;224.10;64.67;;;1.40;99.90;;;;;;5023113;28;39670;-76
2020/12/09 06:07:32;;;;;;;182.60;62.07;;;1.40;99.90;;;;;;5028404;28;47836;-76
2020/12/09 06:10:07;;;;;;;260.13;73.47;;;1.40;99.90;;;;;;5023646;28;38099;-77
2020/12/09 06:12:55;;;;;;;215.07;70.83;;;1.40;99.90;;;;;;5050045;28;47357;-77
2020/12/09 06:15:24;;;;;;;348.83;81.40;;;1.40;99.90;;;;;;5019732;28;38951;-77
2020/12/09 06:18:11;;;;;;;287.33;80.97;;;1.30;99.90;;;;;;5035570;28;38481;-77
2020/12/09 06:20:39;;;;;;;351.47;86.63;;;1.30;99.90;;;;;;5019135;28;47806;-77
2020/12/09 06:23:14;;;;;;;323.37;84.83;;;1.30;99.90;;;;;;5021443;28;38311;-78
2020/12/09 06:25:41;;;;;;;385.57;89.63;;;1.30;99.90;;;;;;5035556;28;47237;-77
2020/12/09 06:28:17;;;;;;;429.50;87.03;;;1.40;99.90;;;;;;5007338;28;38364;-79
2020/12/09 06:30:44;;;;;;;447.67;92.43;;;1.30;99.90;;;;;;5040902;28;37926;-78
2020/12/09 06:33:10;;;;;;;487.43;94.07;;;1.40;99.90;;;;;;5018851;28;37755;-77
2020/12/09 06:35:37;;;;;;;402.40;87.67;;;1.30;99.90;;;;;;5017405;28;39608;-78
2020/12/09 06:38:10;;;;;;;423.17;90.27;;;1.30;99.90;;;;;;5028294;28;37355;-85
2020/12/09 06:41:00;;;;;;;468.53;92.03;;;1.40;99.90;;;;;;5023762;28;38523;-78
2020/12/09 06:43:26;;;;;;;454.73;87.00;;;1.40;99.90;;;;;;5010820;28;37000;-78
2020/12/09 06:45:52;;;;;;;409.57;84.50;;;1.40;99.90;;;;;;5001396;28;39364;-78
2020/12/09 06:48:18;;;;;;;482.97;91.47;;;1.30;99.90;;;;;;5009549;28;38934;-77
2020/12/09 06:50:46;;;;;;;414.20;88.47;;;1.30;99.90;;;;;;5018533;28;38146;-78
2020/12/09 06:53:22;;;;;;;299.93;79.70;;;1.40;99.90;;;;;;5039514;28;36211;-79
2020/12/09 06:55:50;;;;;;;406.40;84.53;;;1.40;99.90;;;;;;5008233;28;38832;-78
2020/12/09 06:58:30;;;;;;;366.40;81.50;;;1.50;99.90;;;;;;5024686;28;38772;-78
2020/12/09 07:01:05;;;;;;;286.37;75.30;;;1.40;99.90;;;;;;5008483;28;38596;-77
2020/12/09 07:03:37;;;;;;;355.93;82.03;;;1.40;99.90;;;;;;5007818;28;48930;-77
2020/12/09 07:06:21;;;;;;;401.08;84.47;;;1.30;99.90;;;;;;5001505;28;37831;-77
2020/12/09 07:08:48;;;;;;;468.40;87.40;;;1.30;99.90;;;;;;5021045;28;38255;-77
2020/12/09 07:11:15;;;;;;;388.20;82.87;;;1.30;99.90;;;;;;5021521;28;37437;-77
2020/12/09 07:13:41;;;;;;;362.93;80.37;;;1.30;99.90;;;;;;5024398;28;36373;-77
2020/12/09 07:16:07;;;;;;;401.93;82.27;;;1.30;99.90;;;;;;5006543;28;40072;-77
2020/12/09 07:18:37;;;;;;;372.43;80.47;;;1.30;99.90;;;;;;5006471;28;37320;-78
2020/12/09 07:21:06;;;;;;;448.83;84.50;;;1.30;99.90;;;;;;5006614;28;37069;-78
2020/12/09 07:23:36;;;;;;;466.10;86.80;;;1.30;99.90;;;;;;5039461;28;36545;-78
2020/12/09 07:26:03;;;;;;;379.30;82.03;;;1.30;99.90;;;;;;5005497;28;39835;-78
2020/12/09 07:28:32;;;;;;;424.17;84.30;;;1.30;99.90;;;;;;5005259;28;38780;-77
2020/12/09 07:31:10;;;;;;;242.80;70.70;;;1.40;99.90;;;;;;5005222;28;37955;-77
2020/12/09 07:33:36;;;;;;;303.20;76.27;;;1.40;99.90;;;;;;5005547;28;47485;-77
2020/12/09 07:36:05;;;;;;;275.87;70.03;;;1.40;99.90;;;;;;5005034;28;38171;-77
2020/12/09 07:38:31;;;;;;;262.60;70.87;;;1.30;99.90;;;;;;5007717;28;38505;-78
2020/12/09 07:41:02;;;;;;;436.70;82.07;;;1.40;99.90;;;;;;5008694;28;37035;-78
2020/12/09 07:43:29;;;;;;;364.47;74.83;;;1.30;99.90;;;;;;5007367;28;47312;-77
2020/12/09 07:46:03;;;;;;;273.50;67.43;;;1.30;99.90;;;;;;5004860;28;39491;-77
2020/12/09 07:48:30;;;;;;;303.87;70.93;;;1.40;99.90;;;;;;5004786;28;48913;-78
2020/12/09 07:50:58;;;;;;;349.50;72.63;;;1.30;99.90;;;;;;5009030;28;38827;-77
2020/12/09 07:53:25;;;;;;;296.50;67.37;;;1.30;99.90;;;;;;5023685;28;37577;-78
2020/12/09 07:55:52;;;;;;;389.20;73.27;;;1.20;99.90;;;;;;5009012;28;38681;-78
2020/12/09 07:58:19;;;;;;;284.70;66.70;;;1.20;99.90;;;;;;5022260;28;38203;-77
2020/12/09 08:00:47;;;;;;;262.17;67.07;;;1.20;99.90;;;;;;5008687;28;38199;-77
2020/12/09 08:03:22;;;;;;;285.83;64.00;;;1.30;99.90;;;;;;5006480;28;36964;-77
2020/12/09 08:05:50;;;;;;;219.30;58.57;;;1.30;99.90;;;;;;5007312;28;37689;-77
2020/12/09 08:08:20;;;;;;;202.57;54.77;;;1.30;99.90;;;;;;5007216;28;37696;-78
2020/12/09 08:10:47;;;;;;;246.43;58.83;;;1.20;99.90;;;;;;5008058;28;37199;-78
2020/12/09 08:13:20;;;;;;;216.27;57.93;;;1.30;99.90;;;;;;5006370;28;36479;-78
2020/12/09 08:16:06;;;;;;;246.05;61.92;;;1.30;99.90;;;;;;5025858;28;37635;-78
2020/12/09 08:18:32;;;;;;;164.23;54.40;;;1.40;99.90;;;;;;5003597;28;47130;-77
2020/12/09 08:20:58;;;;;;;191.67;56.47;;;1.40;99.90;;;;;;5020996;28;37359;-77
2020/12/09 08:23:41;;;;;;;176.30;54.97;;;1.40;99.90;;;;;;5023742;28;36609;-78
2020/12/09 08:26:08;;;;;;;207.15;59.28;;;1.40;99.90;;;;;;5006899;28;38032;-78
2020/12/09 08:28:35;;;;;;;212.17;55.53;;;1.40;99.90;;;;;;5008282;28;40296;-78
2020/12/09 08:31:13;;;;;;;215.50;56.70;;;1.50;99.90;;;;;;5008363;28;38951;-78
2020/12/09 08:33:39;;;;;;;176.00;50.77;;;1.50;99.90;;;;;;5005375;28;47487;-78
2020/12/09 08:36:10;;;;;;;176.07;49.97;;;1.40;99.90;;;;;;5005621;28;37713;-77
2020/12/09 08:38:49;;;;;;;161.20;50.80;;;1.40;99.90;;;;;;5008439;28;37443;-78
2020/12/09 08:41:26;;;;;;;219.83;55.20;;;1.50;99.90;;;;;;5006246;28;37457;-78
2020/12/09 08:43:55;;;;;;;192.60;51.33;;;1.50;99.90;;;;;;5008160;28;36313;-78
2020/12/09 08:46:23;;;;;;;181.33;47.87;;;1.50;99.90;;;;;;5022788;28;38758;-77
2020/12/09 08:48:49;;;;;;;176.07;48.43;;;1.50;99.90;;;;;;5008176;28;39201;-78
2020/12/09 08:51:15;;;;;;;200.97;50.83;;;1.40;99.90;;;;;;5007033;28;38206;-78
2020/12/09 08:53:41;;;;;;;217.17;50.47;;;1.40;99.90;;;;;;5007678;28;36742;-77
2020/12/09 08:56:07;;;;;;;162.70;45.73;;;1.50;99.90;;;;;;5004362;28;38919;-79
2020/12/09 08:58:33;;;;;;;177.20;47.80;;;1.50;99.90;;;;;;5008128;28;37648;-78
2020/12/09 09:01:00;;;;;;;222.87;50.87;;;1.40;99.90;;;;;;4997955;28;38200;-78
2020/12/09 09:03:27;;;;;;;235.30;48.60;;;1.40;99.90;;;;;;4997283;28;37389;-78
2020/12/09 09:05:58;;;;;;;185.53;48.73;;;1.40;99.90;;;;;;5007039;28;37965;-78
2020/12/09 09:08:24;;;;;;;222.30;45.03;;;1.40;99.90;;;;;;4989043;28;39289;-78
2020/12/09 09:10:52;;;;;;;194.43;44.40;;;1.30;99.90;;;;;;5001925;28;39101;-78
2020/12/09 09:13:18;;;;;;;224.33;45.03;;;1.30;99.90;;;;;;5003897;28;37657;-77
2020/12/09 09:15:44;;;;;;;170.90;43.47;;;1.30;99.90;;;;;;5004765;28;38919;-78
2020/12/09 09:18:10;;;;;;;157.20;42.17;;;1.30;99.90;;;;;;5002590;28;37692;-78
2020/12/09 09:20:37;;;;;;;186.47;45.10;;;1.30;99.90;;;;;;5022358;28;37546;-79
2020/12/09 09:24:02;;;;;;;;;;;;;;;;;;;;;
2020/12/09 09:29:39;;;;;;;158.53;43.67;;;1.30;99.90;;;;;;4900775;28;39157;-78
2020/12/09 09:32:05;;;;;;;171.37;43.17;;;1.40;99.90;;;;;;4994481;28;36848;-77
2020/12/09 09:34:32;;;;;;;181.87;44.93;;;1.40;99.90;;;;;;5036378;28;37286;-77
2020/12/09 09:36:58;;;;;;;179.17;44.40;;;1.40;99.90;;;;;;5004540;28;37988;-77
2020/12/09 09:39:25;;;;;;;179.57;45.77;;;1.40;99.90;;;;;;5005707;28;38420;-77
2020/12/09 09:41:57;;;;;;;168.43;43.23;;;1.40;99.90;;;;;;5006738;28;39024;-78
2020/12/09 09:44:23;;;;;;;159.93;44.05;;;1.40;99.90;;;;;;5026112;28;36612;-78
2020/12/09 09:46:49;;;;;;;175.93;45.43;;;1.50;99.90;;;;;;5000944;28;39731;-77
2020/12/09 09:49:16;;;;;;;167.10;46.07;;;1.50;99.90;;;;;;4998364;28;38694;-77
2020/12/09 09:51:42;;;;;;;164.87;43.17;;;1.50;99.90;;;;;;5003086;28;39324;-77
2020/12/09 09:54:08;;;;;;;184.50;46.40;;;1.40;99.90;;;;;;5007114;28;38070;-78
2020/12/09 09:56:34;;;;;;;178.63;45.43;;;1.50;99.90;;;;;;5004047;28;38853;-77
2020/12/09 09:59:00;;;;;;;165.67;44.93;;;1.50;99.90;;;;;;5002182;28;38033;-77
2020/12/09 10:01:26;;;;;;;180.83;47.50;;;1.60;99.90;;;;;;5003480;28;37223;-77
2020/12/09 10:03:52;;;;;;;152.10;45.57;;;1.60;99.90;;;;;;5000152;28;37461;-77
2020/12/09 10:06:18;;;;;;;157.33;44.93;;;1.70;99.90;;;;;;5003312;28;39258;-77
2020/12/09 10:08:44;;;;;;;158.37;45.93;;;1.70;99.90;;;;;;5005933;28;38680;-77
2020/12/09 10:11:10;;;;;;;164.93;44.80;;;1.70;99.90;;;;;;5008997;28;38547;-77
2020/12/09 10:13:37;;;;;;;165.20;46.77;;;1.60;99.90;;;;;;5039387;28;36616;-77
2020/12/09 10:16:03;;;;;;;167.70;45.03;;;1.60;99.90;;;;;;5025687;28;37623;-77
2020/12/09 10:18:29;;;;;;;167.43;45.63;;;1.60;99.90;;;;;;5042192;28;37751;-77
2020/12/09 10:20:55;;;;;;;167.13;44.87;;;1.60;99.90;;;;;;5034061;28;38822;-77
2020/12/09 10:23:21;;;;;;;139.93;45.03;;;1.60;99.90;;;;;;5022210;28;37425;-77
2020/12/09 10:25:47;;;;;;;113.97;42.47;;;1.70;99.90;;;;;;5026548;28;38237;-77
2020/12/09 10:28:13;;;;;;;149.27;45.20;;;1.80;99.90;;;;;;5025257;28;38907;-77
2020/12/09 10:30:45;;;;;;;117.23;42.03;;;1.80;99.90;;;;;;5042257;28;37121;-77
2020/12/09 10:33:12;;;;;;;136.63;42.77;;;1.90;99.90;;;;;;5022994;28;37457;-77
2020/12/09 10:35:43;;;;;;;139.17;43.27;;;1.90;99.90;;;;;;5024146;28;38041;-78
2020/12/09 10:38:09;;;;;;;125.50;41.20;;;1.90;99.90;;;;;;5025860;28;38631;-77
2020/12/09 10:40:36;;;;;;;142.60;39.63;;;1.80;99.90;;;;;;5022934;28;38115;-77
2020/12/09 10:43:02;;;;;;;134.17;40.47;;;1.90;99.90;;;;;;5022098;28;37295;-77
2020/12/09 10:45:28;;;;;;;119.20;39.10;;;1.90;99.90;;;;;;5020157;28;37318;-76
2020/12/09 10:47:54;;;;;;;136.90;41.63;;;1.90;99.90;;;;;;5023421;28;38554;-79
2020/12/09 10:50:20;;;;;;;125.67;40.23;;;1.80;99.90;;;;;;5014981;28;38113;-76
2020/12/09 10:52:46;;;;;;;127.67;41.17;;;1.70;99.90;;;;;;5035462;28;36428;-76
2020/12/09 10:55:12;;;;;;;133.03;41.20;;;1.70;99.90;;;;;;5018158;28;39114;-77
2020/12/09 10:57:38;;;;;;;138.17;41.37;;;1.70;99.90;;;;;;5028840;28;37895;-77
2020/12/09 11:00:05;;;;;;;113.47;39.17;;;1.80;99.90;;;;;;5022948;28;37362;-77
2020/12/09 11:02:31;;;;;;;134.60;41.53;;;1.90;99.90;;;;;;5023235;28;36431;-77
2020/12/09 11:04:57;;;;;;;132.10;43.13;;;2.00;99.90;;;;;;5022828;28;38649;-77
2020/12/09 11:07:23;;;;;;;115.80;40.63;;;1.90;99.90;;;;;;5009113;28;38824;-77
2020/12/09 11:09:49;;;;;;;118.47;40.03;;;1.90;99.90;;;;;;5010917;28;38267;-77
2020/12/09 11:12:15;;;;;;;110.53;40.03;;;1.90;99.90;;;;;;5026739;28;37168;-77
2020/12/09 11:14:41;;;;;;;117.50;40.50;;;2.00;99.90;;;;;;5028628;28;38940;-77
2020/12/09 11:17:07;;;;;;;110.27;39.63;;;2.00;99.90;;;;;;5029837;28;39087;-77
2020/12/09 11:19:34;;;;;;;103.80;39.33;;;2.00;99.90;;;;;;5028504;28;38289;-77
2020/12/09 11:22:00;;;;;;;99.27;40.73;;;2.00;99.90;;;;;;5027241;28;38181;-77
2020/12/09 11:24:26;;;;;;;108.50;40.43;;;2.10;99.90;;;;;;5026527;28;40242;-77
2020/12/09 11:26:53;;;;;;;112.53;41.73;;;2.00;99.90;;;;;;5022411;28;39205;-77
2020/12/09 11:29:19;;;;;;;101.83;40.63;;;2.00;99.90;;;;;;5025460;28;39024;-77
2020/12/09 11:31:45;;;;;;;108.67;40.07;;;2.00;99.90;;;;;;5020023;28;38020;-76
2020/12/09 11:34:11;;;;;;;112.23;42.27;;;2.00;99.90;;;;;;5011377;28;38595;-77
2020/12/09 11:36:37;;;;;;;123.57;42.67;;;2.00;99.90;;;;;;5035251;28;37234;-77
2020/12/09 11:39:03;;;;;;;126.10;44.33;;;1.90;99.90;;;;;;5007370;28;38487;-77
2020/12/09 11:41:31;;;;;;;112.50;41.50;;;2.00;99.90;;;;;;5051762;28;36240;-77
2020/12/09 11:43:57;;;;;;;122.70;43.13;;;1.90;99.90;;;;;;5053122;28;37870;-77
2020/12/09 11:46:24;;;;;;;109.47;43.33;;;2.00;99.90;;;;;;5038579;28;37975;-77
2020/12/09 11:48:51;;;;;;;127.30;42.97;;;2.10;99.90;;;;;;5037745;28;37369;-77
2020/12/09 11:51:17;;;;;;;136.23;46.17;;;2.10;99.90;;;;;;5026445;28;37690;-77
2020/12/09 11:53:44;;;;;;;119.93;42.67;;;2.00;99.90;;;;;;5023048;28;37403;-77
2020/12/09 11:56:11;;;;;;;125.30;47.03;;;2.10;99.90;;;;;;5005156;28;39195;-77
2020/12/09 11:58:41;;;;;;;135.00;47.77;;;2.10;99.90;;;;;;5008100;28;37161;-77
2020/12/09 12:01:07;;;;;;;119.37;44.87;;;2.10;99.90;;;;;;5007312;28;36281;-77
2020/12/09 12:03:34;;;;;;;127.67;45.43;;;2.20;99.90;;;;;;5007667;28;39052;-76
2020/12/09 12:06:00;;;;;;;118.73;45.50;;;2.20;99.90;;;;;;5004563;28;39130;-77
2020/12/09 12:08:26;;;;;;;124.50;46.50;;;2.20;99.90;;;;;;5002513;28;47056;-77
2020/12/09 12:10:52;;;;;;;130.63;48.17;;;2.10;99.90;;;;;;5009218;28;37213;-77
2020/12/09 12:13:18;;;;;;;136.33;49.83;;;2.10;99.90;;;;;;5011123;28;39626;-78
2020/12/09 12:15:44;;;;;;;125.23;47.27;;;2.20;99.90;;;;;;5010654;28;37477;-77
2020/12/09 12:18:11;;;;;;;128.07;48.37;;;2.10;99.90;;;;;;5020631;28;37160;-78
2020/12/09 12:20:37;;;;;;;128.80;46.83;;;2.10;99.90;;;;;;5007747;28;36999;-78
2020/12/09 12:23:03;;;;;;;117.47;47.27;;;2.10;99.90;;;;;;5005937;28;37833;-77
2020/12/09 12:25:29;;;;;;;134.07;48.80;;;2.10;99.90;;;;;;5015688;28;37535;-77
2020/12/09 12:27:55;;;;;;;125.00;48.67;;;2.20;99.90;;;;;;5026291;28;37208;-77
2020/12/09 12:30:21;;;;;;;127.83;48.50;;;2.20;99.90;;;;;;5004980;28;37468;-79
2020/12/09 12:32:47;;;;;;;127.43;49.40;;;2.20;99.90;;;;;;5003183;28;38204;-78
2020/12/09 12:35:13;;;;;;;118.27;47.33;;;2.30;99.90;;;;;;5008911;28;37560;-77
2020/12/09 12:37:39;;;;;;;124.27;47.67;;;2.30;99.90;;;;;;5021075;28;37971;-77